sensor_id;sensor_type;location;lat;lon;timestamp;P1;durP1;ratioP1;P2;durP2;ratioP2
22924;SDS011;11628;51.072;3.712;2023-01-08T00:00:43;6.63;;;3.95;;
22924;SDS011;11628;51.072;3.712;2023-01-08T00:03:09;10.18;;;4.05;;
22924;SDS011;11628;51.072;3.712;2023-01-08T00:05:35;8.18;;;4.05;;
22924;SDS011;11628;51.072;3.712;2023-01-08T00:08:01;7.95;;;4.18;;
22924;SDS011;11628;51.072;3.712;2023-01-08T00:10:27;8.93;;;4.45;;
22924;SDS011;11628;51.072;3.712;2023-01-08T00:12:54;13.70;;;4.28;;
22924;SDS011;11628;51.072;3.712;2023-01-08T00:15:20;8.07;;;3.72;;
22924;SDS011;11628;51.072;3.712;2023-01-08T00:17:45;9.18;;;3.50;;
22924;SDS011;11628;51.072;3.712;2023-01-08T00:20:11;6.65;;;3.42;;
22924;SDS011;11628;51.072;3.712;2023-01-08T00:22:37;6.88;;;3.60;;
22924;SDS011;11628;51.072;3.712;2023-01-08T00:25:03;9.85;;;4.07;;
22924;SDS011;11628;51.072;3.712;2023-01-08T00:27:29;11.00;;;3.97;;
22924;SDS011;11628;51.072;3.712;2023-01-08T00:29:55;9.07;;;3.92;;
22924;SDS011;11628;51.072;3.712;2023-01-08T00:32:21;10.00;;;4.13;;
22924;SDS011;11628;51.072;3.712;2023-01-08T00:34:47;8.60;;;3.67;;
22924;SDS011;11628;51.072;3.712;2023-01-08T00:37:13;8.80;;;4.03;;
22924;SDS011;11628;51.072;3.712;2023-01-08T00:39:42;8.32;;;4.00;;
22924;SDS011;11628;51.072;3.712;2023-01-08T00:42:09;7.53;;;3.88;;
22924;SDS011;11628;51.072;3.712;2023-01-08T00:44:35;7.25;;;3.97;;
22924;SDS011;11628;51.072;3.712;2023-01-08T00:47:01;9.63;;;3.10;;
22924;SDS011;11628;51.072;3.712;2023-01-08T00:49:27;7.47;;;3.72;;
22924;SDS011;11628;51.072;3.712;2023-01-08T00:51:53;7.80;;;3.13;;
22924;SDS011;11628;51.072;3.712;2023-01-08T00:54:18;6.95;;;3.00;;
22924;SDS011;11628;51.072;3.712;2023-01-08T00:56:44;8.05;;;2.97;;
22924;SDS011;11628;51.072;3.712;2023-01-08T00:59:10;4.82;;;2.35;;
22924;SDS011;11628;51.072;3.712;2023-01-08T01:01:35;6.07;;;2.70;;
22924;SDS011;11628;51.072;3.712;2023-01-08T01:04:01;3.20;;;2.10;;
22924;SDS011;11628;51.072;3.712;2023-01-08T01:06:27;7.22;;;2.17;;
22924;SDS011;11628;51.072;3.712;2023-01-08T01:08:53;7.55;;;2.20;;
22924;SDS011;11628;51.072;3.712;2023-01-08T01:11:26;5.20;;;1.70;;
22924;SDS011;11628;51.072;3.712;2023-01-08T01:13:53;5.95;;;1.55;;
22924;SDS011;11628;51.072;3.712;2023-01-08T01:16:19;8.32;;;1.80;;
22924;SDS011;11628;51.072;3.712;2023-01-08T01:18:45;4.82;;;1.52;;
22924;SDS011;11628;51.072;3.712;2023-01-08T01:21:12;5.47;;;1.40;;
22924;SDS011;11628;51.072;3.712;2023-01-08T01:23:52;4.55;;;1.45;;
22924;SDS011;11628;51.072;3.712;2023-01-08T01:26:20;9.00;;;1.42;;
22924;SDS011;11628;51.072;3.712;2023-01-08T01:28:47;5.22;;;1.63;;
22924;SDS011;11628;51.072;3.712;2023-01-08T01:31:14;3.75;;;1.40;;
22924;SDS011;11628;51.072;3.712;2023-01-08T01:33:40;6.18;;;1.80;;
22924;SDS011;11628;51.072;3.712;2023-01-08T01:36:06;5.15;;;1.08;;
22924;SDS011;11628;51.072;3.712;2023-01-08T01:38:34;5.50;;;1.55;;
22924;SDS011;11628;51.072;3.712;2023-01-08T01:41:00;5.78;;;1.95;;
22924;SDS011;11628;51.072;3.712;2023-01-08T01:43:34;6.13;;;1.52;;
22924;SDS011;11628;51.072;3.712;2023-01-08T01:46:05;7.95;;;1.88;;
22924;SDS011;11628;51.072;3.712;2023-01-08T01:48:42;4.88;;;1.70;;
22924;SDS011;11628;51.072;3.712;2023-01-08T01:51:09;8.00;;;1.70;;
22924;SDS011;11628;51.072;3.712;2023-01-08T01:53:35;7.97;;;1.80;;
22924;SDS011;11628;51.072;3.712;2023-01-08T01:56:02;6.85;;;1.42;;
22924;SDS011;11628;51.072;3.712;2023-01-08T01:58:29;8.07;;;1.67;;
22924;SDS011;11628;51.072;3.712;2023-01-08T02:00:58;6.32;;;1.83;;
22924;SDS011;11628;51.072;3.712;2023-01-08T02:03:29;8.57;;;1.83;;
22924;SDS011;11628;51.072;3.712;2023-01-08T02:08:26;8.93;;;2.17;;
22924;SDS011;11628;51.072;3.712;2023-01-08T02:13:37;7.57;;;1.40;;
22924;SDS011;11628;51.072;3.712;2023-01-08T02:16:15;6.50;;;1.52;;
22924;SDS011;11628;51.072;3.712;2023-01-08T02:18:54;5.82;;;1.80;;
22924;SDS011;11628;51.072;3.712;2023-01-08T02:27:20;3.88;;;1.90;;
22924;SDS011;11628;51.072;3.712;2023-01-08T02:29:50;4.43;;;1.17;;
22924;SDS011;11628;51.072;3.712;2023-01-08T02:32:18;5.25;;;1.52;;
22924;SDS011;11628;51.072;3.712;2023-01-08T02:34:50;9.20;;;2.10;;
22924;SDS011;11628;51.072;3.712;2023-01-08T02:37:16;6.13;;;2.08;;
22924;SDS011;11628;51.072;3.712;2023-01-08T02:39:56;4.60;;;1.58;;
22924;SDS011;11628;51.072;3.712;2023-01-08T02:48:06;5.40;;;1.23;;
22924;SDS011;11628;51.072;3.712;2023-01-08T02:53:32;8.85;;;1.63;;
22924;SDS011;11628;51.072;3.712;2023-01-08T02:56:04;6.00;;;1.63;;
22924;SDS011;11628;51.072;3.712;2023-01-08T02:58:34;6.95;;;1.83;;
22924;SDS011;11628;51.072;3.712;2023-01-08T03:01:03;6.07;;;1.88;;
22924;SDS011;11628;51.072;3.712;2023-01-08T03:03:34;6.38;;;1.58;;
22924;SDS011;11628;51.072;3.712;2023-01-08T03:06:04;5.95;;;1.63;;
22924;SDS011;11628;51.072;3.712;2023-01-08T03:08:40;10.10;;;1.63;;
22924;SDS011;11628;51.072;3.712;2023-01-08T03:11:12;6.90;;;1.70;;
22924;SDS011;11628;51.072;3.712;2023-01-08T03:16:15;8.60;;;1.90;;
22924;SDS011;11628;51.072;3.712;2023-01-08T03:18:51;7.43;;;2.08;;
22924;SDS011;11628;51.072;3.712;2023-01-08T03:21:21;8.35;;;1.80;;
22924;SDS011;11628;51.072;3.712;2023-01-08T03:23:47;3.92;;;1.60;;
22924;SDS011;11628;51.072;3.712;2023-01-08T03:26:17;5.63;;;1.70;;
22924;SDS011;11628;51.072;3.712;2023-01-08T03:28:50;5.15;;;1.60;;
22924;SDS011;11628;51.072;3.712;2023-01-08T03:31:17;7.22;;;2.00;;
22924;SDS011;11628;51.072;3.712;2023-01-08T03:33:44;7.65;;;2.00;;
22924;SDS011;11628;51.072;3.712;2023-01-08T03:36:12;6.07;;;1.83;;
22924;SDS011;11628;51.072;3.712;2023-01-08T03:38:46;8.10;;;1.73;;
22924;SDS011;11628;51.072;3.712;2023-01-08T03:41:18;8.25;;;1.75;;
22924;SDS011;11628;51.072;3.712;2023-01-08T03:43:46;6.25;;;1.58;;
22924;SDS011;11628;51.072;3.712;2023-01-08T03:46:17;5.75;;;1.15;;
22924;SDS011;11628;51.072;3.712;2023-01-08T03:48:56;7.10;;;1.30;;
22924;SDS011;11628;51.072;3.712;2023-01-08T03:51:23;5.03;;;1.20;;
22924;SDS011;11628;51.072;3.712;2023-01-08T03:53:49;3.97;;;1.20;;
22924;SDS011;11628;51.072;3.712;2023-01-08T03:56:18;6.80;;;1.63;;
22924;SDS011;11628;51.072;3.712;2023-01-08T03:58:44;9.88;;;1.92;;
22924;SDS011;11628;51.072;3.712;2023-01-08T04:01:10;5.10;;;1.02;;
22924;SDS011;11628;51.072;3.712;2023-01-08T04:03:35;5.20;;;1.00;;
22924;SDS011;11628;51.072;3.712;2023-01-08T04:06:01;5.63;;;1.20;;
22924;SDS011;11628;51.072;3.712;2023-01-08T04:08:27;6.80;;;1.10;;
22924;SDS011;11628;51.072;3.712;2023-01-08T04:10:53;7.53;;;1.63;;
22924;SDS011;11628;51.072;3.712;2023-01-08T04:13:18;5.28;;;1.17;;
22924;SDS011;11628;51.072;3.712;2023-01-08T04:15:48;7.88;;;1.20;;
22924;SDS011;11628;51.072;3.712;2023-01-08T04:18:15;7.05;;;1.48;;
22924;SDS011;11628;51.072;3.712;2023-01-08T04:20:47;5.13;;;1.10;;
22924;SDS011;11628;51.072;3.712;2023-01-08T04:23:13;4.95;;;1.27;;
22924;SDS011;11628;51.072;3.712;2023-01-08T04:25:39;4.20;;;0.85;;
22924;SDS011;11628;51.072;3.712;2023-01-08T04:28:05;5.15;;;1.33;;
22924;SDS011;11628;51.072;3.712;2023-01-08T04:30:31;6.07;;;1.30;;
22924;SDS011;11628;51.072;3.712;2023-01-08T04:32:56;4.97;;;1.20;;
22924;SDS011;11628;51.072;3.712;2023-01-08T04:35:22;7.13;;;1.40;;
22924;SDS011;11628;51.072;3.712;2023-01-08T04:37:48;5.35;;;1.30;;
22924;SDS011;11628;51.072;3.712;2023-01-08T04:40:13;5.85;;;1.10;;
22924;SDS011;11628;51.072;3.712;2023-01-08T04:42:39;7.70;;;1.05;;
22924;SDS011;11628;51.072;3.712;2023-01-08T04:45:05;6.07;;;1.10;;
22924;SDS011;11628;51.072;3.712;2023-01-08T04:47:32;4.97;;;1.40;;
22924;SDS011;11628;51.072;3.712;2023-01-08T04:49:57;5.28;;;1.00;;
22924;SDS011;11628;51.072;3.712;2023-01-08T04:52:23;9.23;;;1.20;;
22924;SDS011;11628;51.072;3.712;2023-01-08T04:54:49;10.48;;;1.60;;
22924;SDS011;11628;51.072;3.712;2023-01-08T04:57:14;7.35;;;1.10;;
22924;SDS011;11628;51.072;3.712;2023-01-08T04:59:40;5.72;;;1.13;;
22924;SDS011;11628;51.072;3.712;2023-01-08T05:02:06;11.35;;;1.58;;
22924;SDS011;11628;51.072;3.712;2023-01-08T05:04:31;10.13;;;1.40;;
22924;SDS011;11628;51.072;3.712;2023-01-08T05:06:57;7.25;;;1.20;;
22924;SDS011;11628;51.072;3.712;2023-01-08T05:09:23;8.07;;;1.13;;
22924;SDS011;11628;51.072;3.712;2023-01-08T05:11:49;7.13;;;0.98;;
22924;SDS011;11628;51.072;3.712;2023-01-08T05:14:14;7.72;;;1.33;;
22924;SDS011;11628;51.072;3.712;2023-01-08T05:16:40;6.97;;;1.55;;
22924;SDS011;11628;51.072;3.712;2023-01-08T05:19:06;4.65;;;1.13;;
22924;SDS011;11628;51.072;3.712;2023-01-08T05:21:32;10.23;;;2.05;;
22924;SDS011;11628;51.072;3.712;2023-01-08T05:23:58;5.65;;;1.42;;
22924;SDS011;11628;51.072;3.712;2023-01-08T05:26:24;13.30;;;1.40;;
22924;SDS011;11628;51.072;3.712;2023-01-08T05:28:49;10.60;;;1.67;;
22924;SDS011;11628;51.072;3.712;2023-01-08T05:31:17;6.15;;;1.30;;
22924;SDS011;11628;51.072;3.712;2023-01-08T05:33:42;8.43;;;1.75;;
22924;SDS011;11628;51.072;3.712;2023-01-08T05:36:09;12.15;;;1.60;;
22924;SDS011;11628;51.072;3.712;2023-01-08T05:38:37;9.88;;;1.65;;
22924;SDS011;11628;51.072;3.712;2023-01-08T05:41:03;7.82;;;1.40;;
22924;SDS011;11628;51.072;3.712;2023-01-08T05:43:30;8.23;;;1.45;;
22924;SDS011;11628;51.072;3.712;2023-01-08T05:45:59;7.20;;;1.83;;
22924;SDS011;11628;51.072;3.712;2023-01-08T05:48:26;9.60;;;1.50;;
22924;SDS011;11628;51.072;3.712;2023-01-08T05:50:53;12.90;;;1.92;;
22924;SDS011;11628;51.072;3.712;2023-01-08T05:53:19;9.55;;;1.45;;
22924;SDS011;11628;51.072;3.712;2023-01-08T05:55:44;8.35;;;1.60;;
22924;SDS011;11628;51.072;3.712;2023-01-08T05:58:10;11.20;;;1.70;;
22924;SDS011;11628;51.072;3.712;2023-01-08T06:00:36;8.70;;;1.42;;
22924;SDS011;11628;51.072;3.712;2023-01-08T06:03:02;14.05;;;1.75;;
22924;SDS011;11628;51.072;3.712;2023-01-08T06:05:29;10.40;;;1.42;;
22924;SDS011;11628;51.072;3.712;2023-01-08T06:07:56;10.60;;;1.42;;
22924;SDS011;11628;51.072;3.712;2023-01-08T06:10:22;13.98;;;2.40;;
22924;SDS011;11628;51.072;3.712;2023-01-08T06:12:48;8.13;;;2.45;;
22924;SDS011;11628;51.072;3.712;2023-01-08T06:15:14;10.70;;;1.67;;
22924;SDS011;11628;51.072;3.712;2023-01-08T06:17:40;12.60;;;2.17;;
22924;SDS011;11628;51.072;3.712;2023-01-08T06:20:06;13.27;;;2.17;;
22924;SDS011;11628;51.072;3.712;2023-01-08T06:22:32;11.13;;;1.50;;
22924;SDS011;11628;51.072;3.712;2023-01-08T06:24:58;7.88;;;1.40;;
22924;SDS011;11628;51.072;3.712;2023-01-08T06:27:24;10.90;;;1.40;;
22924;SDS011;11628;51.072;3.712;2023-01-08T06:29:50;8.82;;;1.55;;
22924;SDS011;11628;51.072;3.712;2023-01-08T06:32:16;10.90;;;1.83;;
22924;SDS011;11628;51.072;3.712;2023-01-08T06:34:41;6.95;;;1.88;;
22924;SDS011;11628;51.072;3.712;2023-01-08T06:37:07;8.80;;;1.55;;
22924;SDS011;11628;51.072;3.712;2023-01-08T06:39:33;11.20;;;1.30;;
22924;SDS011;11628;51.072;3.712;2023-01-08T06:41:58;8.48;;;1.35;;
22924;SDS011;11628;51.072;3.712;2023-01-08T06:44:24;9.98;;;1.83;;
22924;SDS011;11628;51.072;3.712;2023-01-08T06:46:50;7.30;;;1.58;;
22924;SDS011;11628;51.072;3.712;2023-01-08T06:49:15;8.80;;;1.88;;
22924;SDS011;11628;51.072;3.712;2023-01-08T06:51:41;11.63;;;1.60;;
22924;SDS011;11628;51.072;3.712;2023-01-08T06:54:07;9.75;;;1.60;;
22924;SDS011;11628;51.072;3.712;2023-01-08T06:56:33;11.15;;;1.60;;
22924;SDS011;11628;51.072;3.712;2023-01-08T06:58:59;9.02;;;1.88;;
22924;SDS011;11628;51.072;3.712;2023-01-08T07:01:24;8.88;;;1.48;;
22924;SDS011;11628;51.072;3.712;2023-01-08T07:03:50;5.55;;;1.20;;
22924;SDS011;11628;51.072;3.712;2023-01-08T07:06:19;9.35;;;1.40;;
22924;SDS011;11628;51.072;3.712;2023-01-08T07:08:46;6.95;;;1.73;;
22924;SDS011;11628;51.072;3.712;2023-01-08T07:11:12;8.40;;;1.40;;
22924;SDS011;11628;51.072;3.712;2023-01-08T07:13:39;10.52;;;1.60;;
22924;SDS011;11628;51.072;3.712;2023-01-08T07:16:08;11.07;;;1.70;;
22924;SDS011;11628;51.072;3.712;2023-01-08T07:18:35;11.02;;;1.70;;
22924;SDS011;11628;51.072;3.712;2023-01-08T07:21:02;10.10;;;1.77;;
22924;SDS011;11628;51.072;3.712;2023-01-08T07:23:28;12.85;;;2.05;;
22924;SDS011;11628;51.072;3.712;2023-01-08T07:25:54;6.93;;;1.60;;
22924;SDS011;11628;51.072;3.712;2023-01-08T07:28:23;10.55;;;1.80;;
22924;SDS011;11628;51.072;3.712;2023-01-08T07:30:49;16.35;;;3.47;;
22924;SDS011;11628;51.072;3.712;2023-01-08T07:33:14;11.82;;;1.80;;
22924;SDS011;11628;51.072;3.712;2023-01-08T07:35:40;12.90;;;2.10;;
22924;SDS011;11628;51.072;3.712;2023-01-08T07:38:06;10.55;;;1.80;;
22924;SDS011;11628;51.072;3.712;2023-01-08T07:40:31;10.85;;;2.10;;
22924;SDS011;11628;51.072;3.712;2023-01-08T07:42:59;12.10;;;2.58;;
22924;SDS011;11628;51.072;3.712;2023-01-08T07:45:29;7.38;;;1.60;;
22924;SDS011;11628;51.072;3.712;2023-01-08T07:47:58;10.65;;;1.58;;
22924;SDS011;11628;51.072;3.712;2023-01-08T07:50:24;13.07;;;2.03;;
22924;SDS011;11628;51.072;3.712;2023-01-08T07:52:51;10.40;;;2.33;;
22924;SDS011;11628;51.072;3.712;2023-01-08T07:55:16;16.00;;;2.72;;
22924;SDS011;11628;51.072;3.712;2023-01-08T07:57:42;12.07;;;1.98;;
22924;SDS011;11628;51.072;3.712;2023-01-08T08:00:08;12.73;;;3.13;;
22924;SDS011;11628;51.072;3.712;2023-01-08T08:02:34;14.43;;;1.92;;
22924;SDS011;11628;51.072;3.712;2023-01-08T08:05:00;15.52;;;2.10;;
22924;SDS011;11628;51.072;3.712;2023-01-08T08:07:26;8.82;;;2.35;;
22924;SDS011;11628;51.072;3.712;2023-01-08T08:09:54;10.32;;;2.75;;
22924;SDS011;11628;51.072;3.712;2023-01-08T08:12:19;13.18;;;2.35;;
22924;SDS011;11628;51.072;3.712;2023-01-08T08:14:45;13.93;;;2.20;;
22924;SDS011;11628;51.072;3.712;2023-01-08T08:17:11;11.65;;;2.75;;
22924;SDS011;11628;51.072;3.712;2023-01-08T08:19:36;12.85;;;1.80;;
22924;SDS011;11628;51.072;3.712;2023-01-08T08:22:02;10.02;;;2.30;;
22924;SDS011;11628;51.072;3.712;2023-01-08T08:24:28;9.98;;;1.83;;
22924;SDS011;11628;51.072;3.712;2023-01-08T08:26:53;15.85;;;3.15;;
22924;SDS011;11628;51.072;3.712;2023-01-08T08:29:19;11.25;;;2.10;;
22924;SDS011;11628;51.072;3.712;2023-01-08T08:31:45;10.05;;;2.25;;
22924;SDS011;11628;51.072;3.712;2023-01-08T08:34:11;12.15;;;2.47;;
22924;SDS011;11628;51.072;3.712;2023-01-08T08:36:36;10.18;;;2.20;;
22924;SDS011;11628;51.072;3.712;2023-01-08T08:39:02;10.65;;;2.00;;
22924;SDS011;11628;51.072;3.712;2023-01-08T08:41:28;9.68;;;2.58;;
22924;SDS011;11628;51.072;3.712;2023-01-08T08:43:54;10.52;;;2.03;;
22924;SDS011;11628;51.072;3.712;2023-01-08T08:46:20;8.25;;;2.10;;
22924;SDS011;11628;51.072;3.712;2023-01-08T08:48:45;6.82;;;1.40;;
22924;SDS011;11628;51.072;3.712;2023-01-08T08:51:12;7.03;;;1.70;;
22924;SDS011;11628;51.072;3.712;2023-01-08T08:53:38;8.88;;;1.98;;
22924;SDS011;11628;51.072;3.712;2023-01-08T08:56:04;7.22;;;2.33;;
22924;SDS011;11628;51.072;3.712;2023-01-08T08:58:29;5.85;;;1.42;;
22924;SDS011;11628;51.072;3.712;2023-01-08T09:00:59;6.95;;;1.88;;
22924;SDS011;11628;51.072;3.712;2023-01-08T09:03:26;6.03;;;1.38;;
22924;SDS011;11628;51.072;3.712;2023-01-08T09:05:52;6.22;;;1.75;;
22924;SDS011;11628;51.072;3.712;2023-01-08T09:08:18;7.22;;;1.60;;
22924;SDS011;11628;51.072;3.712;2023-01-08T09:10:43;4.88;;;1.30;;
22924;SDS011;11628;51.072;3.712;2023-01-08T09:13:09;5.50;;;1.60;;
22924;SDS011;11628;51.072;3.712;2023-01-08T09:15:36;4.72;;;1.17;;
22924;SDS011;11628;51.072;3.712;2023-01-08T09:18:02;8.15;;;1.52;;
22924;SDS011;11628;51.072;3.712;2023-01-08T09:20:28;5.15;;;1.48;;
22924;SDS011;11628;51.072;3.712;2023-01-08T09:22:56;3.30;;;1.45;;
22924;SDS011;11628;51.072;3.712;2023-01-08T09:25:22;3.25;;;1.02;;
22924;SDS011;11628;51.072;3.712;2023-01-08T09:27:48;5.72;;;1.20;;
22924;SDS011;11628;51.072;3.712;2023-01-08T09:30:14;3.88;;;1.00;;
22924;SDS011;11628;51.072;3.712;2023-01-08T09:32:39;4.57;;;1.33;;
22924;SDS011;11628;51.072;3.712;2023-01-08T09:35:06;3.67;;;0.90;;
22924;SDS011;11628;51.072;3.712;2023-01-08T09:37:32;3.00;;;1.10;;
22924;SDS011;11628;51.072;3.712;2023-01-08T09:39:58;2.85;;;1.00;;
22924;SDS011;11628;51.072;3.712;2023-01-08T09:42:24;3.33;;;1.13;;
22924;SDS011;11628;51.072;3.712;2023-01-08T09:44:52;1.98;;;0.80;;
22924;SDS011;11628;51.072;3.712;2023-01-08T09:47:28;3.90;;;1.15;;
22924;SDS011;11628;51.072;3.712;2023-01-08T09:49:59;2.15;;;0.70;;
22924;SDS011;11628;51.072;3.712;2023-01-08T09:52:27;3.05;;;1.17;;
22924;SDS011;11628;51.072;3.712;2023-01-08T09:54:55;4.53;;;1.15;;
22924;SDS011;11628;51.072;3.712;2023-01-08T09:57:21;5.07;;;0.82;;
22924;SDS011;11628;51.072;3.712;2023-01-08T09:59:47;4.28;;;1.08;;
22924;SDS011;11628;51.072;3.712;2023-01-08T10:02:21;4.25;;;1.35;;
22924;SDS011;11628;51.072;3.712;2023-01-08T10:04:51;3.22;;;1.05;;
22924;SDS011;11628;51.072;3.712;2023-01-08T10:07:23;3.08;;;1.00;;
22924;SDS011;11628;51.072;3.712;2023-01-08T10:09:50;3.55;;;0.98;;
22924;SDS011;11628;51.072;3.712;2023-01-08T10:12:23;3.80;;;1.00;;
22924;SDS011;11628;51.072;3.712;2023-01-08T10:14:52;2.72;;;1.10;;
22924;SDS011;11628;51.072;3.712;2023-01-08T10:20:24;3.47;;;0.95;;
22924;SDS011;11628;51.072;3.712;2023-01-08T10:22:50;3.15;;;1.00;;
22924;SDS011;11628;51.072;3.712;2023-01-08T10:25:21;3.20;;;0.80;;
22924;SDS011;11628;51.072;3.712;2023-01-08T10:30:32;3.65;;;1.10;;
22924;SDS011;11628;51.072;3.712;2023-01-08T10:33:04;3.70;;;1.20;;
22924;SDS011;11628;51.072;3.712;2023-01-08T10:35:37;4.72;;;1.70;;
22924;SDS011;11628;51.072;3.712;2023-01-08T10:38:04;5.68;;;1.20;;
22924;SDS011;11628;51.072;3.712;2023-01-08T10:43:13;3.55;;;1.20;;
22924;SDS011;11628;51.072;3.712;2023-01-08T10:45:41;8.32;;;1.83;;
22924;SDS011;11628;51.072;3.712;2023-01-08T10:48:14;4.65;;;1.10;;
22924;SDS011;11628;51.072;3.712;2023-01-08T10:50:42;3.25;;;0.85;;
22924;SDS011;11628;51.072;3.712;2023-01-08T10:53:22;4.90;;;1.23;;
22924;SDS011;11628;51.072;3.712;2023-01-08T10:55:58;4.50;;;1.10;;
22924;SDS011;11628;51.072;3.712;2023-01-08T10:58:26;2.95;;;0.98;;
22924;SDS011;11628;51.072;3.712;2023-01-08T11:00:53;4.90;;;1.27;;
22924;SDS011;11628;51.072;3.712;2023-01-08T11:05:55;6.50;;;0.90;;
22924;SDS011;11628;51.072;3.712;2023-01-08T11:08:22;2.80;;;0.90;;
22924;SDS011;11628;51.072;3.712;2023-01-08T11:11:07;7.38;;;1.33;;
22924;SDS011;11628;51.072;3.712;2023-01-08T11:13:34;7.32;;;1.52;;
22924;SDS011;11628;51.072;3.712;2023-01-08T11:16:04;4.85;;;1.00;;
22924;SDS011;11628;51.072;3.712;2023-01-08T11:18:42;5.07;;;0.90;;
22924;SDS011;11628;51.072;3.712;2023-01-08T11:21:30;3.13;;;0.93;;
22924;SDS011;11628;51.072;3.712;2023-01-08T11:24:17;4.32;;;1.10;;
22924;SDS011;11628;51.072;3.712;2023-01-08T11:27:31;3.70;;;1.00;;
22924;SDS011;11628;51.072;3.712;2023-01-08T11:35:00;5.15;;;1.30;;
22924;SDS011;11628;51.072;3.712;2023-01-08T11:38:16;6.32;;;2.13;;
22924;SDS011;11628;51.072;3.712;2023-01-08T11:40:43;5.72;;;1.30;;
22924;SDS011;11628;51.072;3.712;2023-01-08T11:46:21;5.43;;;1.10;;
22924;SDS011;11628;51.072;3.712;2023-01-08T12:24:39;5.43;;;1.13;;
22924;SDS011;11628;51.072;3.712;2023-01-08T12:35:55;4.57;;;1.05;;
22924;SDS011;11628;51.072;3.712;2023-01-08T12:38:31;5.53;;;1.05;;
22924;SDS011;11628;51.072;3.712;2023-01-08T12:41:02;6.88;;;1.10;;
22924;SDS011;11628;51.072;3.712;2023-01-08T12:43:33;6.30;;;1.20;;
22924;SDS011;11628;51.072;3.712;2023-01-08T12:46:07;4.43;;;1.00;;
22924;SDS011;11628;51.072;3.712;2023-01-08T12:48:39;6.70;;;1.25;;
22924;SDS011;11628;51.072;3.712;2023-01-08T12:51:06;3.45;;;1.23;;
22924;SDS011;11628;51.072;3.712;2023-01-08T12:53:52;5.90;;;1.05;;
22924;SDS011;11628;51.072;3.712;2023-01-08T13:04:23;4.50;;;1.10;;
22924;SDS011;11628;51.072;3.712;2023-01-08T13:07:02;5.88;;;1.25;;
22924;SDS011;11628;51.072;3.712;2023-01-08T13:09:29;4.53;;;0.90;;
22924;SDS011;11628;51.072;3.712;2023-01-08T13:11:56;5.47;;;1.23;;
22924;SDS011;11628;51.072;3.712;2023-01-08T13:14:23;5.88;;;1.27;;
22924;SDS011;11628;51.072;3.712;2023-01-08T13:17:00;8.52;;;1.50;;
22924;SDS011;11628;51.072;3.712;2023-01-08T13:19:29;6.30;;;0.95;;
22924;SDS011;11628;51.072;3.712;2023-01-08T13:22:04;5.95;;;1.38;;
22924;SDS011;11628;51.072;3.712;2023-01-08T13:24:46;5.65;;;1.25;;
22924;SDS011;11628;51.072;3.712;2023-01-08T13:29:44;5.10;;;1.02;;
22924;SDS011;11628;51.072;3.712;2023-01-08T13:35:10;6.65;;;1.60;;
22924;SDS011;11628;51.072;3.712;2023-01-08T13:37:40;3.78;;;1.02;;
22924;SDS011;11628;51.072;3.712;2023-01-08T13:43:01;9.38;;;1.80;;
22924;SDS011;11628;51.072;3.712;2023-01-08T13:45:29;8.30;;;1.52;;
22924;SDS011;11628;51.072;3.712;2023-01-08T13:47:55;4.90;;;1.45;;
22924;SDS011;11628;51.072;3.712;2023-01-08T13:50:22;7.32;;;1.20;;
22924;SDS011;11628;51.072;3.712;2023-01-08T13:53:02;5.45;;;1.42;;
22924;SDS011;11628;51.072;3.712;2023-01-08T13:55:33;9.00;;;1.13;;
22924;SDS011;11628;51.072;3.712;2023-01-08T13:58:03;7.82;;;1.40;;
22924;SDS011;11628;51.072;3.712;2023-01-08T14:03:20;5.85;;;1.58;;
22924;SDS011;11628;51.072;3.712;2023-01-08T14:06:05;8.00;;;1.30;;
22924;SDS011;11628;51.072;3.712;2023-01-08T14:08:48;6.70;;;1.45;;
22924;SDS011;11628;51.072;3.712;2023-01-08T14:11:14;6.45;;;1.50;;
22924;SDS011;11628;51.072;3.712;2023-01-08T14:13:41;6.68;;;1.00;;
22924;SDS011;11628;51.072;3.712;2023-01-08T14:16:09;7.70;;;1.40;;
22924;SDS011;11628;51.072;3.712;2023-01-08T14:18:41;6.13;;;1.48;;
22924;SDS011;11628;51.072;3.712;2023-01-08T14:21:08;8.45;;;1.20;;
22924;SDS011;11628;51.072;3.712;2023-01-08T14:23:41;6.60;;;1.33;;
22924;SDS011;11628;51.072;3.712;2023-01-08T14:26:15;8.55;;;1.63;;
22924;SDS011;11628;51.072;3.712;2023-01-08T14:28:49;9.00;;;1.83;;
22924;SDS011;11628;51.072;3.712;2023-01-08T14:31:20;7.93;;;1.10;;
22924;SDS011;11628;51.072;3.712;2023-01-08T14:33:47;4.95;;;1.40;;
22924;SDS011;11628;51.072;3.712;2023-01-08T14:36:14;7.20;;;1.70;;
22924;SDS011;11628;51.072;3.712;2023-01-08T14:38:40;6.82;;;1.30;;
22924;SDS011;11628;51.072;3.712;2023-01-08T14:41:06;4.55;;;1.27;;
22924;SDS011;11628;51.072;3.712;2023-01-08T14:43:40;7.97;;;1.90;;
22924;SDS011;11628;51.072;3.712;2023-01-08T14:48:43;10.13;;;1.30;;
22924;SDS011;11628;51.072;3.712;2023-01-08T14:51:10;7.97;;;1.42;;
22924;SDS011;11628;51.072;3.712;2023-01-08T14:53:51;6.88;;;1.25;;
22924;SDS011;11628;51.072;3.712;2023-01-08T14:56:26;10.65;;;1.40;;
22924;SDS011;11628;51.072;3.712;2023-01-08T14:58:55;12.40;;;1.60;;
22924;SDS011;11628;51.072;3.712;2023-01-08T15:01:22;7.25;;;1.30;;
22924;SDS011;11628;51.072;3.712;2023-01-08T15:03:51;8.23;;;1.88;;
22924;SDS011;11628;51.072;3.712;2023-01-08T15:06:39;5.50;;;1.42;;
22924;SDS011;11628;51.072;3.712;2023-01-08T15:12:02;7.32;;;1.55;;
22924;SDS011;11628;51.072;3.712;2023-01-08T15:14:29;6.72;;;1.50;;
22924;SDS011;11628;51.072;3.712;2023-01-08T15:16:57;6.18;;;1.40;;
22924;SDS011;11628;51.072;3.712;2023-01-08T15:19:29;9.48;;;1.67;;
22924;SDS011;11628;51.072;3.712;2023-01-08T15:21:58;5.97;;;1.40;;
22924;SDS011;11628;51.072;3.712;2023-01-08T15:24:30;7.38;;;1.52;;
22924;SDS011;11628;51.072;3.712;2023-01-08T15:27:01;9.45;;;1.55;;
22924;SDS011;11628;51.072;3.712;2023-01-08T15:29:33;9.23;;;1.77;;
22924;SDS011;11628;51.072;3.712;2023-01-08T15:34:41;7.80;;;1.50;;
22924;SDS011;11628;51.072;3.712;2023-01-08T15:37:07;5.10;;;1.60;;
22924;SDS011;11628;51.072;3.712;2023-01-08T15:39:33;7.95;;;1.50;;
22924;SDS011;11628;51.072;3.712;2023-01-08T15:41:59;9.55;;;1.48;;
22924;SDS011;11628;51.072;3.712;2023-01-08T15:44:52;11.25;;;2.45;;
22924;SDS011;11628;51.072;3.712;2023-01-08T15:47:17;6.40;;;1.48;;
22924;SDS011;11628;51.072;3.712;2023-01-08T15:49:43;7.45;;;1.48;;
22924;SDS011;11628;51.072;3.712;2023-01-08T15:52:09;10.38;;;1.50;;
22924;SDS011;11628;51.072;3.712;2023-01-08T15:54:35;8.38;;;1.60;;
22924;SDS011;11628;51.072;3.712;2023-01-08T15:57:02;6.80;;;1.38;;
22924;SDS011;11628;51.072;3.712;2023-01-08T15:59:27;8.75;;;1.70;;
22924;SDS011;11628;51.072;3.712;2023-01-08T16:01:54;7.35;;;1.70;;
22924;SDS011;11628;51.072;3.712;2023-01-08T16:04:19;9.48;;;1.17;;
22924;SDS011;11628;51.072;3.712;2023-01-08T16:06:45;11.07;;;2.30;;
22924;SDS011;11628;51.072;3.712;2023-01-08T16:09:11;11.27;;;2.00;;
22924;SDS011;11628;51.072;3.712;2023-01-08T16:11:36;8.52;;;2.30;;
22924;SDS011;11628;51.072;3.712;2023-01-08T16:14:02;7.07;;;1.63;;
22924;SDS011;11628;51.072;3.712;2023-01-08T16:16:27;9.50;;;1.75;;
22924;SDS011;11628;51.072;3.712;2023-01-08T16:18:53;11.25;;;2.08;;
22924;SDS011;11628;51.072;3.712;2023-01-08T16:21:19;9.27;;;2.22;;
22924;SDS011;11628;51.072;3.712;2023-01-08T16:23:44;8.52;;;1.80;;
22924;SDS011;11628;51.072;3.712;2023-01-08T16:26:11;7.07;;;1.58;;
22924;SDS011;11628;51.072;3.712;2023-01-08T16:28:38;9.93;;;2.22;;
22924;SDS011;11628;51.072;3.712;2023-01-08T16:31:05;12.23;;;2.10;;
22924;SDS011;11628;51.072;3.712;2023-01-08T16:33:32;9.57;;;2.00;;
22924;SDS011;11628;51.072;3.712;2023-01-08T16:35:59;8.02;;;1.90;;
22924;SDS011;11628;51.072;3.712;2023-01-08T16:38:26;5.47;;;1.27;;
22924;SDS011;11628;51.072;3.712;2023-01-08T16:40:53;5.85;;;1.42;;
22924;SDS011;11628;51.072;3.712;2023-01-08T16:43:25;8.05;;;2.47;;
22924;SDS011;11628;51.072;3.712;2023-01-08T16:45:52;12.25;;;2.75;;